Wilson Gdynia — 8PSA — position and weather

sailwx.info

Track history (hours):
 
Tides and Currents Weather Stations Pressure Air Temp Water Temp Dewpoint Dewpoint Depression Visibility Wind Speed Wind Dir Waves Ship Positions

Wilson Gdynia

Last reported at 2015-Jul-31 02:25 UTC. Time now 2015-Jul-31 23:27 UTC.
Position N 63°34' E 009°21'.

Length 88 m; draft 5.4 m.

Type: Cargo ship. MMSI: 314192000.

Date/timePositionNaut miles runAvg speedWind from/ knotsBaromVisibWave heightAir tempDewpointWater temp
2015-Jul-31 02:25N 63°34' E 009°21'8 9.7
2015-Jul-31 01:33N 63°38' E 009°38'7 7.1
2015-Jul-31 00:33N 63°34' E 009°51'9 8.9
2015-Jul-30 23:34N 63°29' E 010°07'10 9.5
2015-Jul-30 22:33N 63°33' E 010°26'10 9.5
2015-Jul-30 21:34N 63°39' E 010°43'10 9.5
2015-Jul-30 20:33N 63°45' E 010°59'  
2015-Jul-28 02:33N 63°46' E 010°60'1111.1
2015-Jul-28 01:33N 63°39' E 010°41'1111.4
2015-Jul-28 00:34N 63°32' E 010°20'1110.8
2015-Jul-27 23:33N 63°29' E 009°57'1110.9
2015-Jul-27 22:33N 63°39' E 009°46'1110.5
2015-Jul-27 21:32N 63°35' E 009°24'  
2015-Jul-24 08:09N 55°52' W 006°55'5 9.0
2015-Jul-24 07:33N 55°48' W 006°49'10 9.8
2015-Jul-24 06:33N 55°40' W 006°39'1010.4
2015-Jul-24 05:33N 55°33' W 006°25'9 9.3
2015-Jul-24 04:33N 55°27' W 006°13'8 7.7
2015-Jul-24 03:33N 55°24' W 006°01'7 7.0
2015-Jul-24 02:33N 55°18' W 005°54'7 6.7
2015-Jul-24 01:33N 55°12' W 005°48'16 7.8
2015-Jul-23 23:33N 54°58' W 005°36'8 8.4
2015-Jul-23 22:33N 54°51' W 005°29'9 9.3
2015-Jul-23 21:33N 54°42' W 005°23'10 9.5
2015-Jul-23 20:33N 54°33' W 005°17'9 9.4
2015-Jul-23 19:33N 54°24' W 005°15'10 9.6
2015-Jul-23 18:33N 54°14' W 005°17'9 9.2
2015-Jul-23 17:33N 54°05' W 005°18'134 8.7
2015-Jul-23 02:09N 51°59' W 006°34'5 9.3
2015-Jul-23 01:34N 51°58' W 006°42'9 9.3
2015-Jul-23 00:33N 51°56' W 006°57'9 8.9
2015-Jul-22 23:33N 51°53' W 007°11'9 9.0
2015-Jul-22 22:33N 51°51' W 007°25'9 8.9
2015-Jul-22 21:33N 51°49' W 007°39'9 9.3
2015-Jul-22 20:33N 51°47' W 007°54'9 9.4
2015-Jul-22 19:33N 51°45' W 008°09'7 7.3
2015-Jul-22 18:33N 51°51' W 008°16'3 2.7
2015-Jul-22 17:31N 51°52' W 008°20'0 0.0
2015-Jul-22 16:31N 51°52' W 008°20'0 0.0
2015-Jul-22 15:31N 51°52' W 008°20'0 0.0
2015-Jul-22 14:31N 51°52' W 008°20'0 0.0
2015-Jul-22 13:31N 51°52' W 008°20'0 0.0
2015-Jul-22 12:31N 51°52' W 008°20'0 0.0
2015-Jul-22 11:31N 51°52' W 008°20'0 0.0
2015-Jul-22 10:31N 51°52' W 008°20'0 0.0
2015-Jul-22 09:31N 51°52' W 008°20'0 0.0
2015-Jul-22 08:31N 51°52' W 008°20'0 0.0
2015-Jul-22 07:28N 51°52' W 008°20'0 0.0
2015-Jul-22 06:31N 51°52' W 008°20'2 1.8
2015-Jul-22 05:33N 51°50' W 008°19'2 1.9
2015-Jul-22 04:31N 51°51' W 008°16'0 0.0
2015-Jul-22 03:31N 51°51' W 008°16'0 0.0
2015-Jul-22 02:31N 51°51' W 008°16'0 0.0
2015-Jul-22 01:31N 51°51' W 008°16'0 0.0
2015-Jul-22 00:31N 51°51' W 008°16'3 3.2
2015-Jul-21 23:33N 51°47' W 008°16'7 7.2
2015-Jul-21 22:34N 51°45' W 008°04'8 8.4
2015-Jul-21 21:33N 51°48' W 007°51'8 7.8
2015-Jul-21 20:33N 51°50' W 007°40'8 8.0
2015-Jul-21 19:33N 51°52' W 007°27'8 7.5
2015-Jul-21 18:33N 51°55' W 007°15'7 7.2
2015-Jul-21 17:33N 51°56' W 007°04'7 7.1
2015-Jul-21 16:33N 51°58' W 006°53'  
Track history (hours):
 
Tides and Currents Weather Stations Pressure Air Temp Water Temp Dewpoint Dewpoint Depression Visibility Wind Speed Wind Dir Waves Ship Positions

Wilson Gdynia

Last reported at 2015-Jul-31 02:25 UTC. Time now 2015-Jul-31 23:27 UTC.
Position N 63°34' E 009°21'.

Length 88 m; draft 5.4 m.

Type: Cargo ship. MMSI: 314192000.

Date/timePositionNaut miles runAvg speedWind from/ knotsBaromVisibWave heightAir tempDewpointWater temp
2015-Jul-31 02:25N 63°34' E 009°21'8 9.7
2015-Jul-31 01:33N 63°38' E 009°38'7 7.1
2015-Jul-31 00:33N 63°34' E 009°51'9 8.9
2015-Jul-30 23:34N 63°29' E 010°07'10 9.5
2015-Jul-30 22:33N 63°33' E 010°26'10 9.5
2015-Jul-30 21:34N 63°39' E 010°43'10 9.5
2015-Jul-30 20:33N 63°45' E 010°59'  
2015-Jul-28 02:33N 63°46' E 010°60'1111.1
2015-Jul-28 01:33N 63°39' E 010°41'1111.4
2015-Jul-28 00:34N 63°32' E 010°20'1110.8
2015-Jul-27 23:33N 63°29' E 009°57'1110.9
2015-Jul-27 22:33N 63°39' E 009°46'1110.5
2015-Jul-27 21:32N 63°35' E 009°24'  
2015-Jul-24 08:09N 55°52' W 006°55'5 9.0
2015-Jul-24 07:33N 55°48' W 006°49'10 9.8
2015-Jul-24 06:33N 55°40' W 006°39'1010.4
2015-Jul-24 05:33N 55°33' W 006°25'9 9.3
2015-Jul-24 04:33N 55°27' W 006°13'8 7.7
2015-Jul-24 03:33N 55°24' W 006°01'7 7.0
2015-Jul-24 02:33N 55°18' W 005°54'7 6.7
2015-Jul-24 01:33N 55°12' W 005°48'16 7.8
2015-Jul-23 23:33N 54°58' W 005°36'8 8.4
2015-Jul-23 22:33N 54°51' W 005°29'9 9.3
2015-Jul-23 21:33N 54°42' W 005°23'10 9.5
2015-Jul-23 20:33N 54°33' W 005°17'9 9.4
2015-Jul-23 19:33N 54°24' W 005°15'10 9.6
2015-Jul-23 18:33N 54°14' W 005°17'9 9.2
2015-Jul-23 17:33N 54°05' W 005°18'134 8.7
2015-Jul-23 02:09N 51°59' W 006°34'5 9.3
2015-Jul-23 01:34N 51°58' W 006°42'9 9.3
2015-Jul-23 00:33N 51°56' W 006°57'9 8.9
2015-Jul-22 23:33N 51°53' W 007°11'9 9.0
2015-Jul-22 22:33N 51°51' W 007°25'9 8.9
2015-Jul-22 21:33N 51°49' W 007°39'9 9.3
2015-Jul-22 20:33N 51°47' W 007°54'9 9.4
2015-Jul-22 19:33N 51°45' W 008°09'7 7.3
2015-Jul-22 18:33N 51°51' W 008°16'3 2.7
2015-Jul-22 17:31N 51°52' W 008°20'0 0.0
2015-Jul-22 16:31N 51°52' W 008°20'0 0.0
2015-Jul-22 15:31N 51°52' W 008°20'0 0.0
2015-Jul-22 14:31N 51°52' W 008°20'0 0.0
2015-Jul-22 13:31N 51°52' W 008°20'0 0.0
2015-Jul-22 12:31N 51°52' W 008°20'0 0.0
2015-Jul-22 11:31N 51°52' W 008°20'0 0.0
2015-Jul-22 10:31N 51°52' W 008°20'0 0.0
2015-Jul-22 09:31N 51°52' W 008°20'0 0.0
2015-Jul-22 08:31N 51°52' W 008°20'0 0.0
2015-Jul-22 07:28N 51°52' W 008°20'0 0.0
2015-Jul-22 06:31N 51°52' W 008°20'2 1.8
2015-Jul-22 05:33N 51°50' W 008°19'2 1.9
2015-Jul-22 04:31N 51°51' W 008°16'0 0.0
2015-Jul-22 03:31N 51°51' W 008°16'0 0.0
2015-Jul-22 02:31N 51°51' W 008°16'0 0.0
2015-Jul-22 01:31N 51°51' W 008°16'0 0.0
2015-Jul-22 00:31N 51°51' W 008°16'3 3.2
2015-Jul-21 23:33N 51°47' W 008°16'7 7.2
2015-Jul-21 22:34N 51°45' W 008°04'8 8.4
2015-Jul-21 21:33N 51°48' W 007°51'8 7.8
2015-Jul-21 20:33N 51°50' W 007°40'8 8.0
2015-Jul-21 19:33N 51°52' W 007°27'8 7.5
2015-Jul-21 18:33N 51°55' W 007°15'7 7.2
2015-Jul-21 17:33N 51°56' W 007°04'7 7.1
2015-Jul-21 16:33N 51°58' W 006°53'  

Dump ship's entire track history